sensor_id;sensor_type;location;lat;lon;timestamp;P1;durP1;ratioP1;P2;durP2;ratioP2
16766;SDS011;8501;49.926;8.404;2024-03-07T00:00:14;48.80;;;25.70;;
16766;SDS011;8501;49.926;8.404;2024-03-07T00:02:44;48.80;;;25.47;;
16766;SDS011;8501;49.926;8.404;2024-03-07T00:05:11;51.40;;;25.73;;
16766;SDS011;8501;49.926;8.404;2024-03-07T00:07:37;46.70;;;25.17;;
16766;SDS011;8501;49.926;8.404;2024-03-07T00:10:04;49.90;;;25.13;;
16766;SDS011;8501;49.926;8.404;2024-03-07T00:12:32;49.50;;;24.87;;
16766;SDS011;8501;49.926;8.404;2024-03-07T00:14:58;48.67;;;24.20;;
16766;SDS011;8501;49.926;8.404;2024-03-07T00:17:23;48.77;;;24.73;;
16766;SDS011;8501;49.926;8.404;2024-03-07T00:19:49;49.30;;;25.40;;
16766;SDS011;8501;49.926;8.404;2024-03-07T00:22:14;48.03;;;24.33;;
16766;SDS011;8501;49.926;8.404;2024-03-07T00:24:40;48.23;;;25.07;;
16766;SDS011;8501;49.926;8.404;2024-03-07T00:27:05;50.93;;;25.27;;
16766;SDS011;8501;49.926;8.404;2024-03-07T00:29:32;47.43;;;24.33;;
16766;SDS011;8501;49.926;8.404;2024-03-07T00:32:00;46.40;;;23.90;;
16766;SDS011;8501;49.926;8.404;2024-03-07T00:34:26;48.23;;;24.90;;
16766;SDS011;8501;49.926;8.404;2024-03-07T00:36:51;55.03;;;26.57;;
16766;SDS011;8501;49.926;8.404;2024-03-07T00:39:17;52.40;;;25.80;;
16766;SDS011;8501;49.926;8.404;2024-03-07T00:41:44;53.37;;;26.10;;
16766;SDS011;8501;49.926;8.404;2024-03-07T00:44:10;48.67;;;24.97;;
16766;SDS011;8501;49.926;8.404;2024-03-07T00:46:36;48.73;;;24.63;;
16766;SDS011;8501;49.926;8.404;2024-03-07T00:49:02;52.33;;;25.37;;
16766;SDS011;8501;49.926;8.404;2024-03-07T00:51:28;48.90;;;25.17;;
16766;SDS011;8501;49.926;8.404;2024-03-07T00:53:54;51.63;;;25.27;;
16766;SDS011;8501;49.926;8.404;2024-03-07T00:56:20;51.90;;;25.57;;
16766;SDS011;8501;49.926;8.404;2024-03-07T00:58:47;54.63;;;26.20;;
16766;SDS011;8501;49.926;8.404;2024-03-07T01:01:13;50.83;;;25.60;;
16766;SDS011;8501;49.926;8.404;2024-03-07T01:03:40;49.17;;;25.53;;
16766;SDS011;8501;49.926;8.404;2024-03-07T01:06:06;53.23;;;26.43;;
16766;SDS011;8501;49.926;8.404;2024-03-07T01:08:33;49.00;;;25.30;;
16766;SDS011;8501;49.926;8.404;2024-03-07T01:11:00;52.07;;;26.07;;
16766;SDS011;8501;49.926;8.404;2024-03-07T01:13:25;50.20;;;24.43;;
16766;SDS011;8501;49.926;8.404;2024-03-07T01:15:51;53.13;;;26.40;;
16766;SDS011;8501;49.926;8.404;2024-03-07T01:18:16;51.00;;;25.23;;
16766;SDS011;8501;49.926;8.404;2024-03-07T01:20:42;49.10;;;24.87;;
16766;SDS011;8501;49.926;8.404;2024-03-07T01:23:07;51.60;;;24.50;;
16766;SDS011;8501;49.926;8.404;2024-03-07T01:25:33;54.07;;;25.73;;
16766;SDS011;8501;49.926;8.404;2024-03-07T01:27:59;50.27;;;25.43;;
16766;SDS011;8501;49.926;8.404;2024-03-07T01:30:25;51.50;;;26.27;;
16766;SDS011;8501;49.926;8.404;2024-03-07T01:32:53;51.20;;;25.40;;
16766;SDS011;8501;49.926;8.404;2024-03-07T01:35:19;53.33;;;26.07;;
16766;SDS011;8501;49.926;8.404;2024-03-07T01:37:44;53.93;;;26.87;;
16766;SDS011;8501;49.926;8.404;2024-03-07T01:40:10;51.90;;;25.37;;
16766;SDS011;8501;49.926;8.404;2024-03-07T01:42:36;53.33;;;24.97;;
16766;SDS011;8501;49.926;8.404;2024-03-07T01:45:02;51.90;;;25.10;;
16766;SDS011;8501;49.926;8.404;2024-03-07T01:47:27;48.60;;;24.43;;
16766;SDS011;8501;49.926;8.404;2024-03-07T01:49:53;49.30;;;24.77;;
16766;SDS011;8501;49.926;8.404;2024-03-07T01:52:19;51.43;;;25.47;;
16766;SDS011;8501;49.926;8.404;2024-03-07T01:54:47;56.90;;;26.33;;
16766;SDS011;8501;49.926;8.404;2024-03-07T01:57:13;55.33;;;25.90;;
16766;SDS011;8501;49.926;8.404;2024-03-07T01:59:41;51.63;;;24.73;;
16766;SDS011;8501;49.926;8.404;2024-03-07T02:02:08;56.90;;;27.10;;
16766;SDS011;8501;49.926;8.404;2024-03-07T02:04:33;55.43;;;26.80;;
16766;SDS011;8501;49.926;8.404;2024-03-07T02:06:59;52.47;;;26.60;;
16766;SDS011;8501;49.926;8.404;2024-03-07T02:09:24;53.60;;;26.03;;
16766;SDS011;8501;49.926;8.404;2024-03-07T02:11:50;56.57;;;25.90;;
16766;SDS011;8501;49.926;8.404;2024-03-07T02:14:16;54.60;;;26.47;;
16766;SDS011;8501;49.926;8.404;2024-03-07T02:16:41;55.03;;;26.20;;
16766;SDS011;8501;49.926;8.404;2024-03-07T02:19:07;54.53;;;26.27;;
16766;SDS011;8501;49.926;8.404;2024-03-07T02:21:38;58.37;;;26.40;;
16766;SDS011;8501;49.926;8.404;2024-03-07T02:24:04;54.20;;;26.47;;
16766;SDS011;8501;49.926;8.404;2024-03-07T02:26:30;55.47;;;26.27;;
16766;SDS011;8501;49.926;8.404;2024-03-07T02:28:55;55.03;;;25.77;;
16766;SDS011;8501;49.926;8.404;2024-03-07T02:31:21;55.53;;;25.70;;
16766;SDS011;8501;49.926;8.404;2024-03-07T02:33:59;54.97;;;26.67;;
16766;SDS011;8501;49.926;8.404;2024-03-07T02:36:25;56.07;;;25.87;;
16766;SDS011;8501;49.926;8.404;2024-03-07T02:38:51;56.47;;;26.53;;
16766;SDS011;8501;49.926;8.404;2024-03-07T02:41:17;54.27;;;26.07;;
16766;SDS011;8501;49.926;8.404;2024-03-07T02:43:42;57.87;;;27.23;;
16766;SDS011;8501;49.926;8.404;2024-03-07T02:46:08;54.03;;;26.33;;
16766;SDS011;8501;49.926;8.404;2024-03-07T02:48:36;61.27;;;28.07;;
16766;SDS011;8501;49.926;8.404;2024-03-07T02:51:02;56.10;;;26.20;;
16766;SDS011;8501;49.926;8.404;2024-03-07T02:53:30;54.77;;;26.67;;
16766;SDS011;8501;49.926;8.404;2024-03-07T02:55:57;56.60;;;27.23;;
16766;SDS011;8501;49.926;8.404;2024-03-07T02:58:23;52.07;;;26.17;;
16766;SDS011;8501;49.926;8.404;2024-03-07T03:00:49;54.13;;;27.40;;
16766;SDS011;8501;49.926;8.404;2024-03-07T03:03:23;55.47;;;26.83;;
16766;SDS011;8501;49.926;8.404;2024-03-07T03:05:49;54.47;;;27.47;;
16766;SDS011;8501;49.926;8.404;2024-03-07T03:08:14;56.17;;;26.13;;
16766;SDS011;8501;49.926;8.404;2024-03-07T03:10:40;56.50;;;25.93;;
16766;SDS011;8501;49.926;8.404;2024-03-07T03:13:06;53.67;;;27.47;;
16766;SDS011;8501;49.926;8.404;2024-03-07T03:15:31;55.60;;;26.60;;
16766;SDS011;8501;49.926;8.404;2024-03-07T03:17:57;58.43;;;26.67;;
16766;SDS011;8501;49.926;8.404;2024-03-07T03:20:26;54.87;;;27.53;;
16766;SDS011;8501;49.926;8.404;2024-03-07T03:22:58;55.70;;;27.13;;
16766;SDS011;8501;49.926;8.404;2024-03-07T03:25:24;53.50;;;26.30;;
16766;SDS011;8501;49.926;8.404;2024-03-07T03:27:49;54.00;;;27.40;;
16766;SDS011;8501;49.926;8.404;2024-03-07T03:30:15;57.30;;;27.43;;
16766;SDS011;8501;49.926;8.404;2024-03-07T03:32:43;55.83;;;27.53;;
16766;SDS011;8501;49.926;8.404;2024-03-07T03:35:10;59.93;;;26.90;;
16766;SDS011;8501;49.926;8.404;2024-03-07T03:37:38;50.53;;;25.27;;
16766;SDS011;8501;49.926;8.404;2024-03-07T03:40:07;53.00;;;25.57;;
16766;SDS011;8501;49.926;8.404;2024-03-07T03:42:35;52.23;;;25.53;;
16766;SDS011;8501;49.926;8.404;2024-03-07T03:45:02;54.30;;;25.50;;
16766;SDS011;8501;49.926;8.404;2024-03-07T03:47:31;57.03;;;26.80;;
16766;SDS011;8501;49.926;8.404;2024-03-07T03:50:00;54.37;;;25.87;;
16766;SDS011;8501;49.926;8.404;2024-03-07T03:52:33;53.53;;;26.63;;
16766;SDS011;8501;49.926;8.404;2024-03-07T03:55:01;52.43;;;24.13;;
16766;SDS011;8501;49.926;8.404;2024-03-07T03:57:29;55.10;;;26.13;;
16766;SDS011;8501;49.926;8.404;2024-03-07T03:59:55;51.10;;;23.90;;
16766;SDS011;8501;49.926;8.404;2024-03-07T04:02:24;51.23;;;25.17;;
16766;SDS011;8501;49.926;8.404;2024-03-07T04:04:50;50.53;;;24.70;;
16766;SDS011;8501;49.926;8.404;2024-03-07T04:07:16;52.80;;;25.50;;
16766;SDS011;8501;49.926;8.404;2024-03-07T04:09:42;48.40;;;24.50;;
16766;SDS011;8501;49.926;8.404;2024-03-07T04:12:08;52.53;;;24.90;;
16766;SDS011;8501;49.926;8.404;2024-03-07T04:14:36;52.00;;;25.13;;
16766;SDS011;8501;49.926;8.404;2024-03-07T04:17:05;49.57;;;24.20;;
16766;SDS011;8501;49.926;8.404;2024-03-07T04:19:33;51.93;;;25.30;;
16766;SDS011;8501;49.926;8.404;2024-03-07T04:22:03;48.70;;;23.43;;
16766;SDS011;8501;49.926;8.404;2024-03-07T04:24:30;49.30;;;24.03;;
16766;SDS011;8501;49.926;8.404;2024-03-07T04:26:59;50.80;;;23.90;;
16766;SDS011;8501;49.926;8.404;2024-03-07T04:29:25;47.43;;;24.00;;
16766;SDS011;8501;49.926;8.404;2024-03-07T04:31:51;47.47;;;23.97;;
16766;SDS011;8501;49.926;8.404;2024-03-07T04:34:17;54.40;;;25.60;;
16766;SDS011;8501;49.926;8.404;2024-03-07T04:36:43;49.00;;;24.33;;
16766;SDS011;8501;49.926;8.404;2024-03-07T04:39:09;48.07;;;24.30;;
16766;SDS011;8501;49.926;8.404;2024-03-07T04:41:47;49.33;;;24.10;;
16766;SDS011;8501;49.926;8.404;2024-03-07T04:44:14;55.03;;;24.60;;
16766;SDS011;8501;49.926;8.404;2024-03-07T04:46:40;43.63;;;22.67;;
16766;SDS011;8501;49.926;8.404;2024-03-07T04:49:07;50.50;;;23.47;;
16766;SDS011;8501;49.926;8.404;2024-03-07T04:51:34;45.57;;;22.87;;
16766;SDS011;8501;49.926;8.404;2024-03-07T04:53:59;50.27;;;23.07;;
16766;SDS011;8501;49.926;8.404;2024-03-07T04:56:25;47.80;;;23.60;;
16766;SDS011;8501;49.926;8.404;2024-03-07T04:58:50;44.30;;;22.47;;
16766;SDS011;8501;49.926;8.404;2024-03-07T05:01:16;48.50;;;23.20;;
16766;SDS011;8501;49.926;8.404;2024-03-07T05:03:41;45.03;;;22.20;;
16766;SDS011;8501;49.926;8.404;2024-03-07T05:08:35;49.00;;;22.97;;
16766;SDS011;8501;49.926;8.404;2024-03-07T05:11:01;47.83;;;23.23;;
16766;SDS011;8501;49.926;8.404;2024-03-07T05:13:27;46.13;;;22.47;;
16766;SDS011;8501;49.926;8.404;2024-03-07T05:15:52;46.70;;;22.53;;
16766;SDS011;8501;49.926;8.404;2024-03-07T05:18:18;44.97;;;23.80;;
16766;SDS011;8501;49.926;8.404;2024-03-07T05:20:43;47.30;;;22.43;;
16766;SDS011;8501;49.926;8.404;2024-03-07T05:23:09;46.00;;;22.20;;
16766;SDS011;8501;49.926;8.404;2024-03-07T05:25:35;48.23;;;22.40;;
16766;SDS011;8501;49.926;8.404;2024-03-07T05:28:01;48.13;;;23.37;;
16766;SDS011;8501;49.926;8.404;2024-03-07T05:30:27;47.97;;;22.87;;
16766;SDS011;8501;49.926;8.404;2024-03-07T05:32:53;44.53;;;22.40;;
16766;SDS011;8501;49.926;8.404;2024-03-07T05:35:19;42.47;;;21.27;;
16766;SDS011;8501;49.926;8.404;2024-03-07T05:37:45;48.90;;;23.03;;
16766;SDS011;8501;49.926;8.404;2024-03-07T05:40:12;44.60;;;22.60;;
16766;SDS011;8501;49.926;8.404;2024-03-07T05:42:38;44.87;;;22.50;;
16766;SDS011;8501;49.926;8.404;2024-03-07T05:45:03;46.30;;;22.77;;
16766;SDS011;8501;49.926;8.404;2024-03-07T05:47:32;44.47;;;22.53;;
16766;SDS011;8501;49.926;8.404;2024-03-07T05:49:58;48.27;;;22.10;;
16766;SDS011;8501;49.926;8.404;2024-03-07T05:52:24;46.20;;;21.93;;
16766;SDS011;8501;49.926;8.404;2024-03-07T05:54:50;46.90;;;23.17;;
16766;SDS011;8501;49.926;8.404;2024-03-07T05:57:15;46.20;;;21.30;;
16766;SDS011;8501;49.926;8.404;2024-03-07T05:59:41;43.80;;;21.77;;
16766;SDS011;8501;49.926;8.404;2024-03-07T06:02:07;48.17;;;22.30;;
16766;SDS011;8501;49.926;8.404;2024-03-07T06:04:32;44.10;;;22.80;;
16766;SDS011;8501;49.926;8.404;2024-03-07T06:06:59;42.87;;;22.20;;
16766;SDS011;8501;49.926;8.404;2024-03-07T06:09:25;41.77;;;21.40;;
16766;SDS011;8501;49.926;8.404;2024-03-07T06:11:51;43.07;;;21.57;;
16766;SDS011;8501;49.926;8.404;2024-03-07T06:14:17;46.30;;;23.30;;
16766;SDS011;8501;49.926;8.404;2024-03-07T06:16:43;46.27;;;22.80;;
16766;SDS011;8501;49.926;8.404;2024-03-07T06:19:08;48.93;;;22.83;;
16766;SDS011;8501;49.926;8.404;2024-03-07T06:21:35;40.17;;;21.50;;
16766;SDS011;8501;49.926;8.404;2024-03-07T06:24:01;42.63;;;21.00;;
16766;SDS011;8501;49.926;8.404;2024-03-07T06:26:32;43.33;;;21.70;;
16766;SDS011;8501;49.926;8.404;2024-03-07T06:29:14;46.00;;;21.03;;
16766;SDS011;8501;49.926;8.404;2024-03-07T06:31:41;44.63;;;21.87;;
16766;SDS011;8501;49.926;8.404;2024-03-07T06:34:07;45.60;;;22.80;;
16766;SDS011;8501;49.926;8.404;2024-03-07T06:36:36;41.27;;;21.50;;
16766;SDS011;8501;49.926;8.404;2024-03-07T06:39:02;46.50;;;22.70;;
16766;SDS011;8501;49.926;8.404;2024-03-07T06:41:32;45.13;;;22.70;;
16766;SDS011;8501;49.926;8.404;2024-03-07T06:43:58;45.67;;;22.90;;
16766;SDS011;8501;49.926;8.404;2024-03-07T06:46:23;44.47;;;21.90;;
16766;SDS011;8501;49.926;8.404;2024-03-07T06:48:49;47.70;;;21.97;;
16766;SDS011;8501;49.926;8.404;2024-03-07T06:51:16;48.10;;;22.07;;
16766;SDS011;8501;49.926;8.404;2024-03-07T06:53:42;44.60;;;22.53;;
16766;SDS011;8501;49.926;8.404;2024-03-07T06:56:08;44.97;;;21.00;;
16766;SDS011;8501;49.926;8.404;2024-03-07T06:58:34;43.53;;;21.80;;
16766;SDS011;8501;49.926;8.404;2024-03-07T07:00:59;45.13;;;22.17;;
16766;SDS011;8501;49.926;8.404;2024-03-07T07:03:32;46.10;;;22.27;;
16766;SDS011;8501;49.926;8.404;2024-03-07T07:05:57;42.70;;;22.17;;
16766;SDS011;8501;49.926;8.404;2024-03-07T07:08:23;41.87;;;21.50;;
16766;SDS011;8501;49.926;8.404;2024-03-07T07:10:49;45.27;;;21.90;;
16766;SDS011;8501;49.926;8.404;2024-03-07T07:13:16;44.33;;;22.33;;
16766;SDS011;8501;49.926;8.404;2024-03-07T07:15:41;43.37;;;22.87;;
16766;SDS011;8501;49.926;8.404;2024-03-07T07:18:08;44.50;;;22.27;;
16766;SDS011;8501;49.926;8.404;2024-03-07T07:20:35;46.43;;;22.50;;
16766;SDS011;8501;49.926;8.404;2024-03-07T07:23:01;46.63;;;22.73;;
16766;SDS011;8501;49.926;8.404;2024-03-07T07:25:28;46.80;;;21.47;;
16766;SDS011;8501;49.926;8.404;2024-03-07T07:27:54;49.27;;;23.43;;
16766;SDS011;8501;49.926;8.404;2024-03-07T07:30:20;44.27;;;22.40;;
16766;SDS011;8501;49.926;8.404;2024-03-07T07:32:52;44.90;;;22.30;;
16766;SDS011;8501;49.926;8.404;2024-03-07T07:35:18;47.23;;;22.70;;
16766;SDS011;8501;49.926;8.404;2024-03-07T07:37:45;43.67;;;22.50;;
16766;SDS011;8501;49.926;8.404;2024-03-07T07:40:17;44.87;;;22.43;;
16766;SDS011;8501;49.926;8.404;2024-03-07T07:42:44;45.87;;;22.10;;
16766;SDS011;8501;49.926;8.404;2024-03-07T07:45:11;41.83;;;21.53;;
16766;SDS011;8501;49.926;8.404;2024-03-07T07:47:42;44.33;;;21.97;;
16766;SDS011;8501;49.926;8.404;2024-03-07T07:50:08;45.57;;;21.53;;
16766;SDS011;8501;49.926;8.404;2024-03-07T07:52:43;41.70;;;20.97;;
16766;SDS011;8501;49.926;8.404;2024-03-07T07:55:13;42.37;;;21.30;;
16766;SDS011;8501;49.926;8.404;2024-03-07T08:00:10;40.23;;;20.37;;
16766;SDS011;8501;49.926;8.404;2024-03-07T08:02:50;42.50;;;20.67;;
16766;SDS011;8501;49.926;8.404;2024-03-07T08:05:22;44.10;;;20.80;;
16766;SDS011;8501;49.926;8.404;2024-03-07T08:07:52;39.50;;;19.77;;
16766;SDS011;8501;49.926;8.404;2024-03-07T08:10:20;42.93;;;21.53;;
16766;SDS011;8501;49.926;8.404;2024-03-07T08:12:48;38.13;;;20.20;;
16766;SDS011;8501;49.926;8.404;2024-03-07T08:15:13;51.87;;;21.90;;
16766;SDS011;8501;49.926;8.404;2024-03-07T08:17:41;41.07;;;20.10;;
16766;SDS011;8501;49.926;8.404;2024-03-07T08:20:11;40.27;;;20.80;;
16766;SDS011;8501;49.926;8.404;2024-03-07T08:22:38;44.73;;;21.37;;
16766;SDS011;8501;49.926;8.404;2024-03-07T08:25:05;40.40;;;20.10;;
16766;SDS011;8501;49.926;8.404;2024-03-07T08:27:34;38.00;;;19.60;;
16766;SDS011;8501;49.926;8.404;2024-03-07T08:30:07;40.37;;;20.27;;
16766;SDS011;8501;49.926;8.404;2024-03-07T08:32:38;37.13;;;18.83;;
16766;SDS011;8501;49.926;8.404;2024-03-07T08:35:04;39.53;;;20.90;;
16766;SDS011;8501;49.926;8.404;2024-03-07T08:37:35;41.07;;;18.93;;
16766;SDS011;8501;49.926;8.404;2024-03-07T08:40:01;39.70;;;20.37;;
16766;SDS011;8501;49.926;8.404;2024-03-07T08:42:31;36.23;;;18.87;;
16766;SDS011;8501;49.926;8.404;2024-03-07T08:45:00;35.60;;;18.80;;
16766;SDS011;8501;49.926;8.404;2024-03-07T08:47:29;38.53;;;19.13;;
16766;SDS011;8501;49.926;8.404;2024-03-07T08:49:56;35.43;;;20.07;;
16766;SDS011;8501;49.926;8.404;2024-03-07T08:52:21;33.30;;;17.47;;
16766;SDS011;8501;49.926;8.404;2024-03-07T08:54:47;34.47;;;18.37;;
16766;SDS011;8501;49.926;8.404;2024-03-07T08:57:13;34.40;;;18.40;;
16766;SDS011;8501;49.926;8.404;2024-03-07T08:59:42;35.07;;;18.27;;
16766;SDS011;8501;49.926;8.404;2024-03-07T09:02:08;37.00;;;18.67;;
16766;SDS011;8501;49.926;8.404;2024-03-07T09:04:35;36.13;;;17.60;;
16766;SDS011;8501;49.926;8.404;2024-03-07T09:07:01;32.60;;;18.27;;
16766;SDS011;8501;49.926;8.404;2024-03-07T09:09:26;32.80;;;17.47;;
16766;SDS011;8501;49.926;8.404;2024-03-07T09:11:52;33.60;;;17.27;;
16766;SDS011;8501;49.926;8.404;2024-03-07T09:14:17;33.00;;;16.90;;
16766;SDS011;8501;49.926;8.404;2024-03-07T09:16:43;35.70;;;17.87;;
16766;SDS011;8501;49.926;8.404;2024-03-07T09:19:09;31.00;;;16.60;;
16766;SDS011;8501;49.926;8.404;2024-03-07T09:21:39;30.60;;;16.80;;
16766;SDS011;8501;49.926;8.404;2024-03-07T09:24:05;28.93;;;16.80;;
16766;SDS011;8501;49.926;8.404;2024-03-07T09:26:32;33.90;;;17.53;;
16766;SDS011;8501;49.926;8.404;2024-03-07T09:28:58;33.60;;;17.00;;
16766;SDS011;8501;49.926;8.404;2024-03-07T09:31:30;32.83;;;17.63;;
16766;SDS011;8501;49.926;8.404;2024-03-07T09:33:59;29.60;;;16.83;;
16766;SDS011;8501;49.926;8.404;2024-03-07T09:36:25;31.07;;;16.90;;
16766;SDS011;8501;49.926;8.404;2024-03-07T09:38:50;29.97;;;17.07;;
16766;SDS011;8501;49.926;8.404;2024-03-07T09:41:16;34.07;;;16.67;;
16766;SDS011;8501;49.926;8.404;2024-03-07T09:43:46;30.43;;;16.30;;
16766;SDS011;8501;49.926;8.404;2024-03-07T09:46:13;33.57;;;16.33;;
16766;SDS011;8501;49.926;8.404;2024-03-07T09:48:39;30.43;;;16.83;;
16766;SDS011;8501;49.926;8.404;2024-03-07T09:51:05;29.87;;;16.67;;
16766;SDS011;8501;49.926;8.404;2024-03-07T09:53:34;29.37;;;16.47;;
16766;SDS011;8501;49.926;8.404;2024-03-07T09:56:02;33.60;;;17.30;;
16766;SDS011;8501;49.926;8.404;2024-03-07T09:58:29;32.37;;;17.13;;
16766;SDS011;8501;49.926;8.404;2024-03-07T10:00:57;31.30;;;16.70;;
16766;SDS011;8501;49.926;8.404;2024-03-07T10:03:25;30.77;;;16.47;;
16766;SDS011;8501;49.926;8.404;2024-03-07T10:05:54;32.67;;;17.07;;
16766;SDS011;8501;49.926;8.404;2024-03-07T10:08:21;32.47;;;17.80;;
16766;SDS011;8501;49.926;8.404;2024-03-07T10:10:49;31.67;;;17.17;;
16766;SDS011;8501;49.926;8.404;2024-03-07T10:13:15;30.03;;;16.70;;
16766;SDS011;8501;49.926;8.404;2024-03-07T10:15:42;34.47;;;17.47;;
16766;SDS011;8501;49.926;8.404;2024-03-07T10:18:08;32.10;;;16.90;;
16766;SDS011;8501;49.926;8.404;2024-03-07T10:20:38;31.90;;;16.60;;
16766;SDS011;8501;49.926;8.404;2024-03-07T10:23:04;33.17;;;16.63;;
16766;SDS011;8501;49.926;8.404;2024-03-07T10:25:32;28.27;;;15.90;;
16766;SDS011;8501;49.926;8.404;2024-03-07T10:27:58;31.40;;;17.03;;
16766;SDS011;8501;49.926;8.404;2024-03-07T10:30:25;33.90;;;17.53;;
16766;SDS011;8501;49.926;8.404;2024-03-07T10:32:55;31.60;;;17.00;;
16766;SDS011;8501;49.926;8.404;2024-03-07T10:35:23;32.40;;;17.17;;
16766;SDS011;8501;49.926;8.404;2024-03-07T10:37:55;34.40;;;17.90;;
16766;SDS011;8501;49.926;8.404;2024-03-07T10:40:21;30.97;;;16.10;;
16766;SDS011;8501;49.926;8.404;2024-03-07T10:42:50;30.13;;;16.60;;
16766;SDS011;8501;49.926;8.404;2024-03-07T10:45:21;30.93;;;17.03;;
16766;SDS011;8501;49.926;8.404;2024-03-07T10:47:55;32.33;;;17.10;;
16766;SDS011;8501;49.926;8.404;2024-03-07T10:50:24;29.73;;;16.47;;
16766;SDS011;8501;49.926;8.404;2024-03-07T10:55:44;28.30;;;16.13;;
16766;SDS011;8501;49.926;8.404;2024-03-07T10:58:27;30.90;;;16.60;;
16766;SDS011;8501;49.926;8.404;2024-03-07T11:01:13;36.27;;;19.00;;
16766;SDS011;8501;49.926;8.404;2024-03-07T11:03:39;33.77;;;16.60;;
16766;SDS011;8501;49.926;8.404;2024-03-07T11:06:06;38.87;;;21.23;;
16766;SDS011;8501;49.926;8.404;2024-03-07T11:08:37;29.93;;;16.50;;
16766;SDS011;8501;49.926;8.404;2024-03-07T11:11:03;29.53;;;16.13;;
16766;SDS011;8501;49.926;8.404;2024-03-07T11:13:33;29.40;;;16.27;;
16766;SDS011;8501;49.926;8.404;2024-03-07T11:15:59;29.13;;;16.27;;
16766;SDS011;8501;49.926;8.404;2024-03-07T11:18:27;29.43;;;16.17;;
16766;SDS011;8501;49.926;8.404;2024-03-07T11:20:53;32.93;;;18.47;;
16766;SDS011;8501;49.926;8.404;2024-03-07T11:23:31;28.33;;;16.20;;
16766;SDS011;8501;49.926;8.404;2024-03-07T11:28:39;35.47;;;18.30;;
16766;SDS011;8501;49.926;8.404;2024-03-07T11:36:45;29.03;;;16.07;;
16766;SDS011;8501;49.926;8.404;2024-03-07T11:42:29;38.20;;;20.20;;
16766;SDS011;8501;49.926;8.404;2024-03-07T11:45:00;33.07;;;17.27;;
16766;SDS011;8501;49.926;8.404;2024-03-07T11:47:35;29.13;;;15.87;;
16766;SDS011;8501;49.926;8.404;2024-03-07T11:50:04;28.33;;;15.93;;
16766;SDS011;8501;49.926;8.404;2024-03-07T11:52:36;29.30;;;16.27;;
16766;SDS011;8501;49.926;8.404;2024-03-07T11:55:07;31.97;;;16.57;;
16766;SDS011;8501;49.926;8.404;2024-03-07T11:57:33;30.47;;;16.00;;
16766;SDS011;8501;49.926;8.404;2024-03-07T11:59:58;27.77;;;15.13;;
16766;SDS011;8501;49.926;8.404;2024-03-07T12:02:33;26.20;;;14.57;;
16766;SDS011;8501;49.926;8.404;2024-03-07T12:04:59;26.67;;;15.13;;
16766;SDS011;8501;49.926;8.404;2024-03-07T12:07:25;26.67;;;15.20;;
16766;SDS011;8501;49.926;8.404;2024-03-07T12:09:51;28.43;;;15.63;;
16766;SDS011;8501;49.926;8.404;2024-03-07T12:12:21;29.60;;;15.60;;
16766;SDS011;8501;49.926;8.404;2024-03-07T12:14:47;25.67;;;15.07;;
16766;SDS011;8501;49.926;8.404;2024-03-07T12:17:13;27.67;;;16.53;;
16766;SDS011;8501;49.926;8.404;2024-03-07T12:19:42;24.13;;;14.53;;
16766;SDS011;8501;49.926;8.404;2024-03-07T12:22:09;24.67;;;15.03;;
16766;SDS011;8501;49.926;8.404;2024-03-07T12:24:38;22.27;;;14.13;;
16766;SDS011;8501;49.926;8.404;2024-03-07T12:27:12;25.67;;;15.40;;
16766;SDS011;8501;49.926;8.404;2024-03-07T12:29:41;26.47;;;15.00;;
16766;SDS011;8501;49.926;8.404;2024-03-07T12:32:08;24.83;;;14.43;;
16766;SDS011;8501;49.926;8.404;2024-03-07T12:34:38;23.67;;;14.30;;
16766;SDS011;8501;49.926;8.404;2024-03-07T12:37:13;26.70;;;15.37;;
16766;SDS011;8501;49.926;8.404;2024-03-07T12:39:41;23.13;;;15.40;;
16766;SDS011;8501;49.926;8.404;2024-03-07T12:42:26;23.63;;;14.00;;
16766;SDS011;8501;49.926;8.404;2024-03-07T12:44:54;23.50;;;14.07;;
16766;SDS011;8501;49.926;8.404;2024-03-07T12:47:19;23.43;;;14.33;;
16766;SDS011;8501;49.926;8.404;2024-03-07T12:49:45;24.53;;;14.53;;
16766;SDS011;8501;49.926;8.404;2024-03-07T12:52:11;27.10;;;15.23;;
16766;SDS011;8501;49.926;8.404;2024-03-07T12:54:40;26.00;;;14.93;;
16766;SDS011;8501;49.926;8.404;2024-03-07T12:57:07;22.93;;;13.43;;
16766;SDS011;8501;49.926;8.404;2024-03-07T12:59:37;22.93;;;13.63;;
16766;SDS011;8501;49.926;8.404;2024-03-07T13:02:07;26.63;;;14.70;;
16766;SDS011;8501;49.926;8.404;2024-03-07T13:04:33;24.47;;;14.00;;
16766;SDS011;8501;49.926;8.404;2024-03-07T13:06:59;23.53;;;14.30;;
16766;SDS011;8501;49.926;8.404;2024-03-07T13:09:29;22.67;;;13.27;;
16766;SDS011;8501;49.926;8.404;2024-03-07T13:11:58;21.37;;;12.77;;
16766;SDS011;8501;49.926;8.404;2024-03-07T13:14:26;21.57;;;13.60;;
16766;SDS011;8501;49.926;8.404;2024-03-07T13:16:57;20.20;;;12.63;;
16766;SDS011;8501;49.926;8.404;2024-03-07T13:19:25;21.50;;;12.80;;
16766;SDS011;8501;49.926;8.404;2024-03-07T13:21:51;20.83;;;12.37;;
16766;SDS011;8501;49.926;8.404;2024-03-07T13:24:18;23.53;;;12.87;;
16766;SDS011;8501;49.926;8.404;2024-03-07T13:26:45;22.70;;;13.00;;
16766;SDS011;8501;49.926;8.404;2024-03-07T13:29:13;18.77;;;12.33;;
16766;SDS011;8501;49.926;8.404;2024-03-07T13:31:39;20.30;;;11.73;;
16766;SDS011;8501;49.926;8.404;2024-03-07T13:34:07;20.83;;;12.60;;
16766;SDS011;8501;49.926;8.404;2024-03-07T13:36:38;19.77;;;11.63;;
16766;SDS011;8501;49.926;8.404;2024-03-07T13:39:09;19.83;;;11.43;;
16766;SDS011;8501;49.926;8.404;2024-03-07T13:41:48;22.83;;;12.43;;
16766;SDS011;8501;49.926;8.404;2024-03-07T13:44:14;20.13;;;11.70;;
16766;SDS011;8501;49.926;8.404;2024-03-07T13:46:39;16.60;;;10.80;;
16766;SDS011;8501;49.926;8.404;2024-03-07T13:49:05;18.63;;;11.60;;
16766;SDS011;8501;49.926;8.404;2024-03-07T13:51:41;16.93;;;10.67;;
16766;SDS011;8501;49.926;8.404;2024-03-07T13:54:28;20.63;;;10.87;;
16766;SDS011;8501;49.926;8.404;2024-03-07T14:05:52;19.27;;;11.33;;
16766;SDS011;8501;49.926;8.404;2024-03-07T14:31:10;17.87;;;11.07;;
16766;SDS011;8501;49.926;8.404;2024-03-07T14:36:14;19.67;;;12.20;;
16766;SDS011;8501;49.926;8.404;2024-03-07T14:38:51;21.47;;;11.73;;
16766;SDS011;8501;49.926;8.404;2024-03-07T14:41:23;18.37;;;11.10;;
16766;SDS011;8501;49.926;8.404;2024-03-07T14:44:04;18.53;;;11.57;;
16766;SDS011;8501;49.926;8.404;2024-03-07T14:46:32;16.80;;;10.63;;
16766;SDS011;8501;49.926;8.404;2024-03-07T14:48:58;18.40;;;10.67;;
16766;SDS011;8501;49.926;8.404;2024-03-07T14:51:24;22.63;;;11.90;;
16766;SDS011;8501;49.926;8.404;2024-03-07T14:53:51;18.03;;;11.00;;
16766;SDS011;8501;49.926;8.404;2024-03-07T14:56:16;18.70;;;11.07;;
16766;SDS011;8501;49.926;8.404;2024-03-07T14:58:45;17.83;;;10.47;;
16766;SDS011;8501;49.926;8.404;2024-03-07T15:01:11;17.37;;;10.87;;
16766;SDS011;8501;49.926;8.404;2024-03-07T15:03:38;16.77;;;10.70;;
16766;SDS011;8501;49.926;8.404;2024-03-07T15:06:06;18.10;;;10.93;;
16766;SDS011;8501;49.926;8.404;2024-03-07T15:08:34;17.47;;;10.60;;
16766;SDS011;8501;49.926;8.404;2024-03-07T15:11:06;18.93;;;10.83;;
16766;SDS011;8501;49.926;8.404;2024-03-07T15:13:48;18.27;;;10.87;;
16766;SDS011;8501;49.926;8.404;2024-03-07T15:16:14;18.33;;;11.50;;
16766;SDS011;8501;49.926;8.404;2024-03-07T15:18:40;16.87;;;10.77;;
16766;SDS011;8501;49.926;8.404;2024-03-07T15:21:08;17.53;;;10.60;;
16766;SDS011;8501;49.926;8.404;2024-03-07T15:23:35;17.63;;;10.70;;
16766;SDS011;8501;49.926;8.404;2024-03-07T15:26:09;15.63;;;9.97;;
16766;SDS011;8501;49.926;8.404;2024-03-07T15:28:37;16.40;;;10.40;;
16766;SDS011;8501;49.926;8.404;2024-03-07T15:31:03;16.03;;;9.80;;